createdAt,value
2023-11-22T00:00:14.818Z,19.17
2023-11-22T00:02:41.708Z,29.90
2023-11-22T00:05:08.773Z,22.33
2023-11-22T00:07:35.402Z,25.58
2023-11-22T00:10:02.592Z,20.70
2023-11-22T00:12:29.241Z,25.00
2023-11-22T00:14:55.812Z,22.63
2023-11-22T00:17:23.108Z,21.40
2023-11-22T00:19:49.770Z,21.55
2023-11-22T00:22:16.319Z,20.80
2023-11-22T00:24:42.916Z,17.10
2023-11-22T00:27:09.646Z,21.30
2023-11-22T00:29:36.170Z,19.73
2023-11-22T00:32:03.089Z,18.60
2023-11-22T00:34:29.628Z,17.77
2023-11-22T00:36:56.161Z,19.35
2023-11-22T00:39:23.551Z,18.65
2023-11-22T00:41:50.183Z,18.23
2023-11-22T00:44:16.813Z,26.42
2023-11-22T00:46:43.513Z,20.45
2023-11-22T00:49:10.071Z,22.08
2023-11-22T00:51:36.691Z,24.60
2023-11-22T00:54:03.306Z,26.53
2023-11-22T00:56:30.335Z,18.75
2023-11-22T00:59:00.731Z,23.00
2023-11-22T01:01:27.474Z,17.15
2023-11-22T01:03:54.097Z,19.25
2023-11-22T01:06:20.726Z,17.90
2023-11-22T01:08:49.087Z,16.02
2023-11-22T01:11:15.657Z,20.48
2023-11-22T01:13:43.863Z,16.08
2023-11-22T01:16:11.359Z,19.73
2023-11-22T01:18:39.960Z,22.30
2023-11-22T01:21:07.148Z,20.40
2023-11-22T01:23:33.735Z,19.00
2023-11-22T01:26:01.400Z,16.98
2023-11-22T01:28:28.431Z,18.73
2023-11-22T01:30:55.641Z,19.30
2023-11-22T01:33:23.094Z,23.77
2023-11-22T01:35:50.977Z,21.85
2023-11-22T01:38:17.671Z,21.23
2023-11-22T01:40:48.475Z,21.73
2023-11-22T01:43:28.075Z,18.30
2023-11-22T01:45:56.017Z,20.63
2023-11-22T01:48:22.832Z,21.67
2023-11-22T01:50:49.880Z,18.42
2023-11-22T01:53:17.572Z,19.90
2023-11-22T01:55:45.860Z,23.10
2023-11-22T01:58:12.906Z,24.67
2023-11-22T02:00:50.371Z,20.20
2023-11-22T02:03:17.738Z,23.15
2023-11-22T02:05:45.322Z,17.45
2023-11-22T02:08:14.349Z,18.93
2023-11-22T02:10:42.989Z,19.05
2023-11-22T02:13:09.625Z,19.42
2023-11-22T02:15:36.460Z,21.90
2023-11-22T02:18:11.168Z,19.48
2023-11-22T02:20:39.974Z,18.83
2023-11-22T02:23:10.915Z,21.40
2023-11-22T02:25:37.528Z,19.52
2023-11-22T02:28:04.288Z,23.75
2023-11-22T02:30:30.947Z,24.10
2023-11-22T02:32:57.657Z,18.50
2023-11-22T02:35:24.934Z,17.80
2023-11-22T02:37:51.532Z,18.35
2023-11-22T02:40:21.503Z,22.38
2023-11-22T02:42:54.163Z,22.40
2023-11-22T02:45:28.415Z,16.87
2023-11-22T02:47:55.140Z,22.90
2023-11-22T02:50:22.062Z,18.17
2023-11-22T02:52:48.609Z,17.08
2023-11-22T02:55:15.976Z,16.05
2023-11-22T02:57:42.626Z,18.73
2023-11-22T03:00:10.446Z,16.00
2023-11-22T03:02:38.443Z,21.23
2023-11-22T03:05:05.594Z,21.95
2023-11-22T03:07:32.145Z,16.40
2023-11-22T03:10:01.499Z,18.83
2023-11-22T03:12:28.608Z,19.55
2023-11-22T03:14:59.639Z,24.35
2023-11-22T03:17:26.186Z,19.23
2023-11-22T03:19:52.961Z,18.42
2023-11-22T03:22:19.820Z,25.33
2023-11-22T03:24:46.437Z,23.77
2023-11-22T03:27:12.955Z,21.83
2023-11-22T03:29:39.517Z,20.85
2023-11-22T03:32:06.460Z,21.85
2023-11-22T03:34:33.018Z,24.15
2023-11-22T03:36:59.588Z,23.10
2023-11-22T03:39:26.093Z,20.55
2023-11-22T03:41:52.587Z,23.50
2023-11-22T03:44:19.127Z,22.45
2023-11-22T03:46:45.762Z,27.60
2023-11-22T03:49:12.384Z,29.85
2023-11-22T03:51:40.289Z,23.80
2023-11-22T03:54:07.064Z,27.92
2023-11-22T03:56:34.765Z,19.92
2023-11-22T03:59:01.364Z,27.48
2023-11-22T04:01:28.019Z,24.60
2023-11-22T04:03:55.385Z,22.95
2023-11-22T04:06:22.295Z,24.88
2023-11-22T04:08:48.910Z,24.42
2023-11-22T04:11:16.147Z,37.40
2023-11-22T04:13:42.995Z,31.98
2023-11-22T04:16:10.385Z,22.45
2023-11-22T04:18:37.342Z,21.20
2023-11-22T04:21:05.951Z,26.35
2023-11-22T04:23:35.982Z,30.15
2023-11-22T04:26:02.712Z,22.23
2023-11-22T04:28:33.124Z,29.63
2023-11-22T04:30:59.997Z,28.92
2023-11-22T04:33:29.295Z,23.55
2023-11-22T04:35:56.323Z,29.13
2023-11-22T04:38:23.133Z,32.80
2023-11-22T04:40:49.679Z,31.05
2023-11-22T04:43:16.208Z,28.98
2023-11-22T04:45:42.846Z,27.40
2023-11-22T04:48:09.636Z,31.10
2023-11-22T04:50:36.935Z,27.23
2023-11-22T04:53:03.472Z,26.63
2023-11-22T04:55:30.082Z,29.02
2023-11-22T04:57:56.652Z,36.33
2023-11-22T05:00:26.267Z,24.55
2023-11-22T05:02:52.986Z,23.23
2023-11-22T05:05:19.770Z,31.65
2023-11-22T05:07:46.348Z,32.78
2023-11-22T05:10:12.986Z,28.20
2023-11-22T05:12:39.930Z,30.27
2023-11-22T05:15:08.614Z,25.55
2023-11-22T05:17:35.535Z,33.97
2023-11-22T05:20:02.852Z,29.15
2023-11-22T05:22:29.596Z,29.80
2023-11-22T05:24:57.240Z,31.98
2023-11-22T05:27:23.837Z,22.88
2023-11-22T05:29:55.059Z,30.48
2023-11-22T05:32:22.572Z,23.95
2023-11-22T05:34:49.279Z,23.67
2023-11-22T05:37:16.045Z,27.05
2023-11-22T05:39:42.694Z,29.95
2023-11-22T05:42:09.252Z,30.55
2023-11-22T05:44:35.899Z,23.67
2023-11-22T05:47:02.710Z,24.88
2023-11-22T05:49:29.589Z,24.65
2023-11-22T05:51:56.230Z,24.83
2023-11-22T05:54:22.748Z,29.55
2023-11-22T05:56:49.813Z,28.27
2023-11-22T05:59:16.531Z,24.02
2023-11-22T06:01:43.117Z,27.95
2023-11-22T06:04:10.954Z,28.30
2023-11-22T06:06:38.093Z,23.75
2023-11-22T06:09:06.591Z,24.83
2023-11-22T06:11:33.354Z,25.17
2023-11-22T06:13:59.967Z,29.97
2023-11-22T06:16:26.577Z,26.65
2023-11-22T06:18:53.191Z,24.55
2023-11-22T06:21:20.232Z,24.67
2023-11-22T06:23:46.954Z,23.83
2023-11-22T06:26:13.658Z,22.40
2023-11-22T06:28:40.252Z,19.48
2023-11-22T06:31:06.824Z,28.55
2023-11-22T06:33:33.391Z,23.10
2023-11-22T06:35:59.939Z,20.02
2023-11-22T06:38:26.490Z,28.30
2023-11-22T06:40:53.029Z,24.35
2023-11-22T06:43:19.620Z,22.02
2023-11-22T06:45:46.300Z,21.45
2023-11-22T06:48:13.198Z,24.90
2023-11-22T06:50:40.629Z,18.17
2023-11-22T06:53:07.548Z,21.38
2023-11-22T06:55:34.341Z,21.23
2023-11-22T06:58:00.943Z,25.23
2023-11-22T07:00:28.878Z,25.40
2023-11-22T07:02:55.500Z,23.02
2023-11-22T07:05:22.117Z,27.50
2023-11-22T07:07:50.812Z,25.42
2023-11-22T07:10:17.415Z,24.65
2023-11-22T07:12:44.584Z,21.23
2023-11-22T07:15:11.524Z,21.25
2023-11-22T07:17:38.279Z,25.88
2023-11-22T07:20:09.619Z,23.98
2023-11-22T07:22:36.774Z,22.27
2023-11-22T07:25:03.611Z,21.63
2023-11-22T07:27:30.299Z,19.37
2023-11-22T07:29:57.214Z,25.00
2023-11-22T07:32:24.061Z,26.30
2023-11-22T07:34:50.612Z,24.83
2023-11-22T07:37:19.324Z,25.27
2023-11-22T07:39:46.067Z,23.10
2023-11-22T07:42:12.752Z,26.05
2023-11-22T07:44:40.406Z,25.73
2023-11-22T07:47:10.518Z,22.63
2023-11-22T07:49:40.415Z,23.40
2023-11-22T07:52:08.077Z,29.13
2023-11-22T07:54:36.563Z,27.45
2023-11-22T07:57:03.326Z,28.25
2023-11-22T07:59:29.908Z,25.75
2023-11-22T08:01:56.503Z,36.38
2023-11-22T08:04:24.697Z,29.83
2023-11-22T08:06:52.480Z,30.88
2023-11-22T08:09:20.836Z,25.92
2023-11-22T08:11:47.423Z,24.30
2023-11-22T08:14:14.519Z,26.75
2023-11-22T08:16:43.908Z,24.50
2023-11-22T08:19:10.734Z,31.42
2023-11-22T08:21:37.578Z,27.95
2023-11-22T08:24:04.429Z,24.75
2023-11-22T08:26:31.199Z,18.60
2023-11-22T08:28:57.821Z,18.65
2023-11-22T08:31:24.372Z,20.73
2023-11-22T08:33:50.941Z,21.02
2023-11-22T08:36:17.820Z,29.42
2023-11-22T08:38:45.450Z,33.92
2023-11-22T08:41:15.305Z,43.03
2023-11-22T08:43:42.613Z,33.85
2023-11-22T08:46:14.153Z,39.25
2023-11-22T08:48:43.009Z,41.83
2023-11-22T08:51:11.283Z,41.05
2023-11-22T08:53:38.352Z,46.72
2023-11-22T08:56:07.215Z,41.40
2023-11-22T08:58:34.963Z,46.63
2023-11-22T09:01:01.755Z,44.38
2023-11-22T09:03:29.005Z,52.13
2023-11-22T09:05:56.750Z,50.30
2023-11-22T09:08:26.775Z,45.95
2023-11-22T09:10:55.584Z,36.58
2023-11-22T09:13:23.726Z,40.40
2023-11-22T09:15:51.065Z,45.40
2023-11-22T09:18:17.956Z,44.13
2023-11-22T09:20:47.345Z,46.85
2023-11-22T09:23:15.458Z,45.80
2023-11-22T09:25:42.191Z,45.95
2023-11-22T09:28:10.568Z,46.47
2023-11-22T09:30:40.082Z,36.10
2023-11-22T09:33:08.779Z,40.10
2023-11-22T09:35:36.952Z,36.30
2023-11-22T09:38:05.434Z,30.52
2023-11-22T09:40:33.273Z,35.58
2023-11-22T09:43:01.646Z,45.47
2023-11-22T09:45:28.330Z,46.05
2023-11-22T09:47:56.331Z,48.83
2023-11-22T09:50:58.090Z,38.00
2023-11-22T09:53:37.453Z,40.50
2023-11-22T09:56:05.608Z,36.67
2023-11-22T09:58:35.074Z,27.40
2023-11-22T10:01:02.802Z,35.45
2023-11-22T10:03:32.095Z,34.10
2023-11-22T10:06:05.342Z,31.75
2023-11-22T10:08:32.513Z,36.35
2023-11-22T10:11:00.516Z,32.28
2023-11-22T10:13:27.760Z,42.45
2023-11-22T10:15:54.789Z,28.33
2023-11-22T10:18:22.634Z,33.17
2023-11-22T10:20:53.819Z,36.92
2023-11-22T10:23:25.541Z,37.30
2023-11-22T10:25:53.880Z,34.78
2023-11-22T10:28:21.758Z,26.20
2023-11-22T10:30:50.907Z,42.78
2023-11-22T10:33:17.791Z,34.65
2023-11-22T10:35:49.491Z,38.97
2023-11-22T10:38:20.022Z,39.03
2023-11-22T10:40:48.974Z,37.00
2023-11-22T10:43:16.906Z,36.35
2023-11-22T10:45:49.738Z,36.42
2023-11-22T10:48:21.236Z,28.65
2023-11-22T10:50:49.346Z,29.20
2023-11-22T10:53:25.790Z,26.70
2023-11-22T10:55:58.946Z,27.27
2023-11-22T10:58:26.897Z,17.75
2023-11-22T11:00:53.877Z,23.20
2023-11-22T11:03:23.329Z,20.02
2023-11-22T11:06:00.190Z,20.85
2023-11-22T11:08:28.796Z,23.13
2023-11-22T11:10:57.195Z,24.63
2023-11-22T11:13:24.775Z,22.23
2023-11-22T11:15:53.317Z,20.73
2023-11-22T11:18:21.021Z,21.00
2023-11-22T11:20:51.881Z,16.85
2023-11-22T11:23:26.407Z,21.77
2023-11-22T11:26:09.464Z,14.55
2023-11-22T11:28:48.828Z,21.50
2023-11-22T11:31:16.548Z,20.90
2023-11-22T11:33:56.436Z,22.42
2023-11-22T11:36:24.059Z,18.75
2023-11-22T11:38:51.914Z,23.13
2023-11-22T11:41:18.951Z,21.65
2023-11-22T11:43:47.535Z,26.05
2023-11-22T11:46:15.180Z,20.73
2023-11-22T11:48:45.978Z,20.92
2023-11-22T11:51:16.971Z,22.53
2023-11-22T11:53:43.945Z,23.05
2023-11-22T11:56:11.272Z,25.58
2023-11-22T11:58:38.848Z,22.88
2023-11-22T12:01:07.944Z,22.92
2023-11-22T12:03:37.399Z,20.45
2023-11-22T12:06:04.370Z,21.58
2023-11-22T12:08:31.703Z,20.77
2023-11-22T12:10:59.993Z,21.40
2023-11-22T12:13:27.322Z,22.35
2023-11-22T12:15:57.149Z,22.30
2023-11-22T12:18:24.428Z,19.77
2023-11-22T12:20:58.814Z,24.85
2023-11-22T12:23:29.152Z,24.08
2023-11-22T12:26:00.093Z,25.27
2023-11-22T12:28:31.328Z,17.48
2023-11-22T12:31:08.363Z,23.48
2023-11-22T12:33:36.456Z,16.45
2023-11-22T12:36:03.589Z,19.17
2023-11-22T12:38:30.814Z,21.38
2023-11-22T12:41:00.625Z,19.63
2023-11-22T12:43:36.862Z,21.42
2023-11-22T12:46:08.698Z,18.65
2023-11-22T12:48:35.407Z,19.42
2023-11-22T12:51:01.965Z,25.25
2023-11-22T12:53:31.858Z,17.02
2023-11-22T12:55:59.108Z,21.85
2023-11-22T12:58:26.814Z,17.25
2023-11-22T13:00:59.307Z,17.17
2023-11-22T13:03:29.629Z,21.27
2023-11-22T13:05:56.500Z,19.90
2023-11-22T13:08:23.406Z,19.27
2023-11-22T13:11:01.114Z,19.55
2023-11-22T13:13:32.302Z,15.07
2023-11-22T13:15:59.142Z,15.25
2023-11-22T13:18:27.799Z,14.32
2023-11-22T13:20:54.582Z,15.88
2023-11-22T13:23:21.820Z,17.63
2023-11-22T13:25:51.452Z,14.70
2023-11-22T13:28:18.427Z,14.63
2023-11-22T13:30:45.227Z,16.00
2023-11-22T13:33:12.988Z,19.33
2023-11-22T13:35:39.980Z,19.45
2023-11-22T13:38:11.954Z,21.70
2023-11-22T13:40:42.351Z,14.13
2023-11-22T13:43:09.464Z,20.08
2023-11-22T13:45:39.169Z,15.25
2023-11-22T13:48:08.016Z,13.05
2023-11-22T13:50:35.584Z,18.23
2023-11-22T13:53:02.879Z,17.67
2023-11-22T13:55:29.575Z,17.58
2023-11-22T13:57:58.336Z,20.05
2023-11-22T14:00:35.750Z,14.32
2023-11-22T14:03:11.806Z,14.32
2023-11-22T14:05:40.102Z,18.65
2023-11-22T14:08:07.729Z,21.35
2023-11-22T14:10:34.415Z,21.58
2023-11-22T14:13:01.791Z,18.88
2023-11-22T14:15:32.450Z,20.13
2023-11-22T14:17:59.420Z,20.15
2023-11-22T14:20:26.255Z,18.67
2023-11-22T14:22:54.015Z,19.63
2023-11-22T14:25:20.761Z,21.75
2023-11-22T14:27:52.836Z,19.08
2023-11-22T14:30:22.168Z,25.92
2023-11-22T14:32:48.964Z,21.08
2023-11-22T14:35:15.893Z,21.63
2023-11-22T14:37:43.544Z,26.17
2023-11-22T14:40:15.178Z,20.83
2023-11-22T14:42:54.144Z,24.30
2023-11-22T14:45:23.760Z,19.25
2023-11-22T14:47:52.967Z,24.77
2023-11-22T14:50:22.119Z,20.63
2023-11-22T14:52:50.547Z,19.25
2023-11-22T14:55:17.568Z,20.52
2023-11-22T14:57:44.299Z,20.85
2023-11-22T15:00:15.415Z,15.93
2023-11-22T15:02:47.933Z,19.27
2023-11-22T15:05:14.690Z,18.33
2023-11-22T15:07:43.045Z,23.77
2023-11-22T15:10:11.181Z,20.45
2023-11-22T15:12:40.518Z,24.63
2023-11-22T15:15:08.536Z,22.88
2023-11-22T15:17:35.917Z,19.83
2023-11-22T15:20:02.522Z,19.55
2023-11-22T15:22:29.035Z,22.15
2023-11-22T15:24:55.575Z,26.48
2023-11-22T15:27:22.096Z,24.73
2023-11-22T15:29:48.721Z,26.90
2023-11-22T15:32:15.429Z,21.50
2023-11-22T15:34:41.990Z,26.27
2023-11-22T15:37:08.612Z,24.55
2023-11-22T15:39:35.121Z,22.88
2023-11-22T15:42:01.732Z,26.30
2023-11-22T15:44:28.344Z,22.63
2023-11-22T15:46:54.873Z,21.15
2023-11-22T15:49:21.461Z,26.92
2023-11-22T15:51:47.996Z,21.70
2023-11-22T15:54:14.603Z,27.25
2023-11-22T15:56:41.649Z,19.75
2023-11-22T15:59:10.788Z,22.90
2023-11-22T16:01:38.700Z,27.05
2023-11-22T16:04:06.485Z,22.98
2023-11-22T16:06:34.305Z,26.38
2023-11-22T16:09:01.162Z,24.48
2023-11-22T16:11:27.725Z,24.33
2023-11-22T16:13:54.365Z,23.80
2023-11-22T16:16:23.375Z,22.02
2023-11-22T16:18:50.085Z,19.52
2023-11-22T16:21:16.742Z,23.15
2023-11-22T16:23:43.354Z,22.42
2023-11-22T16:26:10.507Z,28.10
2023-11-22T16:28:38.187Z,21.25
2023-11-22T16:31:06.196Z,24.20
2023-11-22T16:33:33.104Z,21.27
2023-11-22T16:35:59.920Z,19.63
2023-11-22T16:38:26.621Z,24.25
2023-11-22T16:40:54.564Z,22.45
2023-11-22T16:43:21.946Z,27.65
2023-11-22T16:45:50.561Z,25.35
2023-11-22T16:48:18.179Z,26.73
2023-11-22T16:50:44.969Z,24.05
2023-11-22T16:53:12.309Z,22.48
2023-11-22T16:55:39.986Z,27.45
2023-11-22T16:58:07.192Z,20.80
2023-11-22T17:00:34.171Z,20.40
2023-11-22T17:03:01.514Z,22.35
2023-11-22T17:05:28.391Z,24.92
2023-11-22T17:07:55.842Z,17.92
2023-11-22T17:10:44.708Z,21.40
2023-11-22T17:13:12.569Z,18.75
2023-11-22T17:15:41.140Z,19.55
2023-11-22T17:18:08.563Z,18.60
2023-11-22T17:20:35.450Z,21.90
2023-11-22T17:23:02.120Z,22.77
2023-11-22T17:25:28.786Z,22.27
2023-11-22T17:27:55.918Z,19.08
2023-11-22T17:30:25.504Z,19.55
2023-11-22T17:32:52.522Z,17.90
2023-11-22T17:35:19.458Z,20.73
2023-11-22T17:37:46.121Z,17.17
2023-11-22T17:40:15.047Z,15.02
2023-11-22T17:42:41.629Z,16.98
2023-11-22T17:45:08.748Z,24.73
2023-11-22T17:47:37.413Z,20.58
2023-11-22T17:50:05.948Z,20.65
2023-11-22T17:52:32.829Z,16.42
2023-11-22T17:55:00.013Z,17.55
2023-11-22T17:57:28.096Z,19.98
2023-11-22T17:59:55.222Z,17.73
2023-11-22T18:02:21.843Z,20.48
2023-11-22T18:04:48.453Z,20.15
2023-11-22T18:07:16.341Z,15.32
2023-11-22T18:09:43.579Z,14.68
2023-11-22T18:12:11.836Z,17.13
2023-11-22T18:14:38.532Z,15.88
2023-11-22T18:17:05.846Z,16.85
2023-11-22T18:19:32.616Z,13.40
2023-11-22T18:21:59.395Z,16.83
2023-11-22T18:24:28.499Z,16.58
2023-11-22T18:26:56.334Z,14.60
2023-11-22T18:29:24.644Z,15.25
2023-11-22T18:31:52.116Z,15.77
2023-11-22T18:34:19.059Z,19.17
2023-11-22T18:36:46.124Z,16.17
2023-11-22T18:39:13.933Z,15.13
2023-11-22T18:41:40.697Z,12.85
2023-11-22T18:44:08.364Z,18.10
2023-11-22T18:46:36.372Z,13.95
2023-11-22T18:49:03.127Z,13.98
2023-11-22T18:51:29.746Z,15.43
2023-11-22T18:53:56.437Z,15.88
2023-11-22T18:56:23.112Z,18.30
2023-11-22T18:58:50.188Z,16.45
2023-11-22T19:01:17.247Z,12.45
2023-11-22T19:03:44.018Z,19.92
2023-11-22T19:06:10.790Z,16.27
2023-11-22T19:08:38.365Z,17.30
2023-11-22T19:11:05.167Z,17.13
2023-11-22T19:13:34.573Z,16.20
2023-11-22T19:16:02.630Z,14.43
2023-11-22T19:18:31.411Z,18.70
2023-11-22T19:21:04.120Z,11.35
2023-11-22T19:23:31.304Z,15.25
2023-11-22T19:26:00.683Z,19.92
2023-11-22T19:28:31.475Z,14.75
2023-11-22T19:30:58.704Z,13.60
2023-11-22T19:33:25.962Z,16.25
2023-11-22T19:35:52.940Z,17.50
2023-11-22T19:38:21.673Z,13.95
2023-11-22T19:40:49.085Z,17.73
2023-11-22T19:43:17.169Z,13.98
2023-11-22T19:45:44.916Z,14.20
2023-11-22T19:48:11.865Z,15.48
2023-11-22T19:50:38.592Z,13.98
2023-11-22T19:53:05.225Z,14.30
2023-11-22T19:55:32.602Z,15.45
2023-11-22T19:58:00.732Z,14.98
2023-11-22T20:00:27.905Z,12.55
2023-11-22T20:02:55.553Z,11.57
2023-11-22T20:05:22.294Z,12.02
2023-11-22T20:07:48.925Z,13.95
2023-11-22T20:10:15.619Z,10.82
2023-11-22T20:12:45.479Z,11.85
2023-11-22T20:15:12.320Z,12.48
2023-11-22T20:17:39.143Z,13.57
2023-11-22T20:20:07.920Z,12.68
2023-11-22T20:22:34.696Z,10.77
2023-11-22T20:25:01.807Z,11.85
2023-11-22T20:27:29.647Z,11.43
2023-11-22T20:29:56.754Z,13.30
2023-11-22T20:32:25.490Z,10.43
2023-11-22T20:34:52.104Z,15.60
2023-11-22T20:37:18.677Z,11.80
2023-11-22T20:39:45.410Z,15.10
2023-11-22T20:42:12.447Z,11.48
2023-11-22T20:44:39.057Z,12.75
2023-11-22T20:47:06.016Z,10.80
2023-11-22T20:49:32.784Z,12.32
2023-11-22T20:51:59.670Z,10.90
2023-11-22T20:54:26.772Z,13.88
2023-11-22T20:56:53.291Z,12.32
2023-11-22T20:59:20.014Z,11.98
2023-11-22T21:01:47.097Z,12.73
2023-11-22T21:04:13.922Z,8.77
2023-11-22T21:06:43.749Z,13.57
2023-11-22T21:09:11.782Z,16.42
2023-11-22T21:11:42.259Z,12.50
2023-11-22T21:14:10.027Z,17.40
2023-11-22T21:16:45.828Z,12.87
2023-11-22T21:19:13.148Z,12.77
2023-11-22T21:21:39.938Z,14.23
2023-11-22T21:24:06.946Z,7.43
2023-11-22T21:26:33.678Z,14.93
2023-11-22T21:29:00.366Z,14.07
2023-11-22T21:31:26.954Z,16.23
2023-11-22T21:33:53.600Z,12.52
2023-11-22T21:36:20.481Z,10.63
2023-11-22T21:38:47.099Z,14.45
2023-11-22T21:41:14.247Z,11.30
2023-11-22T21:43:42.622Z,13.00
2023-11-22T21:46:09.447Z,13.65
2023-11-22T21:48:36.328Z,12.65
2023-11-22T21:51:03.997Z,10.98
2023-11-22T21:53:30.602Z,14.93
2023-11-22T21:55:57.139Z,11.30
2023-11-22T21:58:23.724Z,12.13
2023-11-22T22:00:51.733Z,14.05
2023-11-22T22:03:19.593Z,11.23
2023-11-22T22:05:46.929Z,11.83
2023-11-22T22:08:14.920Z,15.13
2023-11-22T22:10:42.275Z,15.27
2023-11-22T22:13:09.362Z,25.70
2023-11-22T22:15:36.517Z,10.85
2023-11-22T22:18:04.459Z,12.70
2023-11-22T22:20:40.133Z,14.35
2023-11-22T22:23:13.941Z,15.05
2023-11-22T22:25:44.137Z,13.95
2023-11-22T22:28:11.188Z,11.57
2023-11-22T22:30:38.812Z,12.27
2023-11-22T22:33:06.136Z,12.13
2023-11-22T22:35:33.104Z,12.63
2023-11-22T22:37:59.877Z,12.63
2023-11-22T22:40:26.406Z,12.70
2023-11-22T22:42:52.974Z,12.43
2023-11-22T22:45:19.627Z,16.33
2023-11-22T22:47:46.606Z,13.20
2023-11-22T22:50:13.604Z,13.48
2023-11-22T22:52:40.694Z,13.00
2023-11-22T22:55:08.707Z,12.00
2023-11-22T22:57:38.710Z,10.43
2023-11-22T23:00:12.390Z,10.13
2023-11-22T23:02:39.744Z,14.55
2023-11-22T23:05:15.739Z,12.27
2023-11-22T23:07:47.679Z,9.83
2023-11-22T23:10:14.481Z,12.50
2023-11-22T23:12:41.117Z,13.52
2023-11-22T23:15:09.054Z,13.95
2023-11-22T23:17:35.903Z,12.85
2023-11-22T23:20:09.319Z,11.43
2023-11-22T23:22:35.871Z,18.27
2023-11-22T23:25:02.428Z,13.00
2023-11-22T23:27:29.038Z,15.93
2023-11-22T23:29:55.688Z,13.02
2023-11-22T23:32:22.447Z,13.23
2023-11-22T23:34:48.951Z,13.88
2023-11-22T23:37:15.468Z,13.13
2023-11-22T23:39:42.798Z,14.45
2023-11-22T23:42:14.852Z,13.55
2023-11-22T23:44:41.525Z,18.37
2023-11-22T23:47:08.026Z,14.55
2023-11-22T23:49:34.572Z,11.20
2023-11-22T23:52:03.405Z,13.90
2023-11-22T23:54:30.690Z,14.27
2023-11-22T23:56:57.218Z,11.60
2023-11-22T23:59:24.188Z,13.63
